Time;durP1;ratioP1;P1;durP2;ratioP2;P2;SDS_P1;SDS_P2;PMS_P1;PMS_P2;Temp;Humidity;BMP_temperature;BMP_pressure;BME280_temperature;BME280_humidity;BME280_pressure;Samples;Min_cycle;Max_cycle;Signal;HPM_P1;HPM_P2
2022/01/16 00:00:40;;;;;;;;;;;15.60;46.90;;;;;;5127840;27;19915;-65
2022/01/16 00:05:53;;;;;;;;;;;15.60;46.90;;;;;;5093898;28;19914;-65
2022/01/16 00:08:18;;;;;;;;;;;15.60;46.90;;;;;;5094872;28;19916;-65
2022/01/16 00:10:44;;;;;;;;;;;15.60;46.90;;;;;;5093048;28;20014;-65
2022/01/16 00:13:09;;;;;;;;;;;15.60;46.90;;;;;;5094788;28;19912;-65
2022/01/16 00:15:35;;;;;;;;;;;15.60;47.00;;;;;;5093350;28;19994;-65
2022/01/16 00:18:10;;;;;;;;;;;15.50;47.00;;;;;;5093331;28;19920;-65
2022/01/16 00:20:35;;;;;;;;;;;15.60;47.00;;;;;;5100158;28;19972;-65
2022/01/16 00:23:04;;;;;;;;;;;15.60;46.90;;;;;;5094626;28;20360;-65
2022/01/16 00:25:30;;;;;;;;;;;15.60;46.90;;;;;;5092956;28;20311;-65
2022/01/16 00:27:55;;;;;;;;;;;15.60;47.00;;;;;;5093866;28;19999;-64
2022/01/16 00:30:20;;;;;;;;;;;15.60;47.00;;;;;;5094254;28;19958;-64
2022/01/16 00:32:46;;;;;;;;;;;15.50;46.90;;;;;;5094487;28;20409;-64
2022/01/16 00:35:11;;;;;;;;;;;15.60;47.00;;;;;;5094583;28;20372;-64
2022/01/16 00:37:38;;;;;;;;;;;15.60;47.00;;;;;;5094313;28;20372;-64
2022/01/16 00:40:04;;;;;;;;;;;15.60;47.00;;;;;;5075689;28;19912;-64
2022/01/16 00:42:30;;;;;;;;;;;15.60;46.90;;;;;;5076134;28;19971;-64
2022/01/16 00:44:55;;;;;;;;;;;15.60;46.90;;;;;;5092816;28;19915;-64
2022/01/16 00:47:20;;;;;;;;;;;15.50;46.90;;;;;;5075986;28;19912;-64
2022/01/16 00:49:46;;;;;;;;;;;15.50;47.00;;;;;;5092982;28;19947;-64
2022/01/16 00:52:11;;;;;;;;;;;15.50;47.00;;;;;;5094136;28;19908;-64
2022/01/16 00:54:37;;;;;;;;;;;15.50;47.00;;;;;;5093415;28;19908;-64
2022/01/16 00:57:02;;;;;;;;;;;15.50;46.90;;;;;;5092556;28;19908;-64
2022/01/16 00:59:28;;;;;;;;;;;15.50;46.90;;;;;;5094130;28;19908;-64
2022/01/16 01:01:53;;;;;;;;;;;15.60;47.00;;;;;;5093816;28;19972;-64
2022/01/16 01:04:19;;;;;;;;;;;15.50;46.90;;;;;;5092374;28;19916;-64
2022/01/16 01:06:48;;;;;;;;;;;15.50;47.00;;;;;;5093729;28;19912;-64
2022/01/16 01:09:13;;;;;;;;;;;15.50;47.00;;;;;;5093114;28;19908;-64
2022/01/16 01:11:40;;;;;;;;;;;15.50;47.00;;;;;;5094133;28;19917;-64
2022/01/16 01:19:16;;;;;;;;;;;15.50;46.90;;;;;;5093347;28;19927;-64
2022/01/16 01:21:41;;;;;;;;;;;15.50;46.80;;;;;;5092324;28;19908;-64
2022/01/16 01:24:07;;;;;;;;;;;15.50;47.50;;;;;;5092946;28;19912;-64
2022/01/16 01:26:39;;;;;;;;;;;15.50;46.90;;;;;;5093367;28;19912;-64
2022/01/16 01:29:05;;;;;;;;;;;15.50;47.00;;;;;;5100104;28;20357;-64
2022/01/16 01:31:31;;;;;;;;;;;15.40;47.00;;;;;;5093412;28;19953;-64
2022/01/16 01:33:56;;;;;;;;;;;15.50;47.10;;;;;;5093199;28;19908;-64
2022/01/16 01:36:22;;;;;;;;;;;15.50;47.00;;;;;;5091934;28;19918;-64
2022/01/16 01:38:50;;;;;;;;;;;15.50;47.00;;;;;;5092694;28;19954;-64
2022/01/16 01:41:15;;;;;;;;;;;15.50;47.00;;;;;;5091142;28;19908;-64
2022/01/16 01:51:42;;;;;;;;;;;15.40;47.00;;;;;;5091977;28;20272;-64
2022/01/16 01:54:07;;;;;;;;;;;15.40;47.00;;;;;;5091237;28;20012;-64
2022/01/16 01:56:33;;;;;;;;;;;15.40;47.00;;;;;;5091677;28;20393;-64
2022/01/16 01:58:59;;;;;;;;;;;15.40;47.00;;;;;;5091414;28;20372;-64
2022/01/16 02:01:25;;;;;;;;;;;15.50;47.00;;;;;;5091649;28;19912;-64
2022/01/16 02:03:50;;;;;;;;;;;15.40;46.90;;;;;;5091330;28;19908;-64
2022/01/16 02:06:20;;;;;;;;;;;15.40;47.00;;;;;;5091357;28;19908;-64
2022/01/16 02:08:47;;;;;;;;;;;15.40;46.90;;;;;;5092555;28;19916;-64
2022/01/16 02:11:13;;;;;;;;;;;15.40;46.90;;;;;;5091434;28;20665;-64
2022/01/16 02:13:50;;;;;;;;;;;15.40;47.00;;;;;;5091315;28;19957;-64
2022/01/16 02:30:40;;;;;;;;;;;15.40;46.90;;;;;;5092392;28;20018;-64
2022/01/16 02:33:10;;;;;;;;;;;15.40;46.90;;;;;;5091344;28;19915;-64
2022/01/16 02:35:33;;;;;;;;;;;15.50;46.80;;;;;;5092298;28;19915;-64
2022/01/16 02:37:58;;;;;;;;;;;15.60;46.70;;;;;;5091156;28;19913;-64
2022/01/16 02:40:26;;;;;;;;;;;15.60;46.50;;;;;;5091888;28;19912;-64
2022/01/16 02:42:52;;;;;;;;;;;15.70;46.40;;;;;;5092377;28;19958;-64
2022/01/16 02:45:28;;;;;;;;;;;15.70;46.20;;;;;;5091086;28;20288;-64
2022/01/16 02:47:55;;;;;;;;;;;15.80;46.20;;;;;;5075440;28;20010;-64
2022/01/16 02:50:20;;;;;;;;;;;15.80;46.10;;;;;;5090995;28;20441;-64
2022/01/16 02:52:46;;;;;;;;;;;15.80;46.00;;;;;;5094424;28;19908;-64
2022/01/16 02:55:13;;;;;;;;;;;15.80;46.00;;;;;;5094419;28;20383;-64
2022/01/16 02:57:39;;;;;;;;;;;15.80;45.90;;;;;;5096342;28;19955;-64
2022/01/16 03:00:05;;;;;;;;;;;15.90;45.80;;;;;;5096140;28;19931;-64
2022/01/16 03:02:30;;;;;;;;;;;15.90;45.70;;;;;;5096058;28;19912;-64
2022/01/16 03:04:56;;;;;;;;;;;15.90;45.80;;;;;;5095939;28;19909;-64
2022/01/16 03:07:22;;;;;;;;;;;15.90;45.70;;;;;;5096177;28;19912;-64
2022/01/16 03:10:29;;;;;;;;;;;15.90;45.70;;;;;;5128356;27;19908;-64
2022/01/16 03:12:55;;;;;;;;;;;15.90;45.70;;;;;;5095578;28;19965;-64
2022/01/16 03:15:20;;;;;;;;;;;15.90;45.80;;;;;;5094582;28;20360;-64
2022/01/16 03:23:08;;;;;;;;;;;15.90;45.80;;;;;;5094846;28;20007;-64
2022/01/16 03:25:33;;;;;;;;;;;15.90;45.80;;;;;;5095227;28;19959;-64
2022/01/16 03:27:59;;;;;;;;;;;15.80;45.80;;;;;;5094626;28;19920;-64
2022/01/16 03:30:24;;;;;;;;;;;15.80;45.80;;;;;;5094360;28;19919;-64
2022/01/16 03:32:50;;;;;;;;;;;15.80;45.80;;;;;;5095625;28;20415;-63
2022/01/16 03:35:15;;;;;;;;;;;15.80;45.80;;;;;;5094101;28;19908;-64
2022/01/16 03:37:41;;;;;;;;;;;15.80;45.80;;;;;;5094289;28;19914;-65
2022/01/16 03:40:10;;;;;;;;;;;15.80;45.80;;;;;;5095083;28;19986;-65
2022/01/16 03:42:37;;;;;;;;;;;15.80;45.80;;;;;;5094367;28;19914;-65
2022/01/16 03:45:03;;;;;;;;;;;15.80;45.90;;;;;;5094031;28;19908;-65
2022/01/16 03:47:28;;;;;;;;;;;15.80;45.80;;;;;;5094180;28;19912;-63
2022/01/16 03:49:54;;;;;;;;;;;15.80;45.80;;;;;;5093892;28;20287;-64
2022/01/16 03:52:19;;;;;;;;;;;15.80;45.80;;;;;;5095232;28;20369;-65
2022/01/16 03:54:44;;;;;;;;;;;15.80;45.70;;;;;;5076528;28;19908;-65
2022/01/16 03:57:10;;;;;;;;;;;15.80;45.70;;;;;;5095247;28;20310;-65
2022/01/16 03:59:35;;;;;;;;;;;15.80;45.70;;;;;;5095069;28;19908;-65
2022/01/16 04:02:01;;;;;;;;;;;15.80;45.70;;;;;;5093872;28;19954;-63
2022/01/16 04:04:26;;;;;;;;;;;15.80;45.70;;;;;;5126848;27;19914;-64
2022/01/16 04:06:52;;;;;;;;;;;15.80;45.70;;;;;;5093573;28;19930;-64
2022/01/16 04:09:18;;;;;;;;;;;15.80;45.70;;;;;;5093684;28;19957;-65
2022/01/16 04:11:52;;;;;;;;;;;15.80;45.80;;;;;;5093766;28;20364;-65
2022/01/16 04:14:24;;;;;;;;;;;15.90;45.80;;;;;;5101568;28;19908;-65
2022/01/16 04:16:50;;;;;;;;;;;15.80;45.80;;;;;;5127498;27;19912;-65
2022/01/16 04:19:15;;;;;;;;;;;15.80;45.90;;;;;;5093292;28;19978;-65
2022/01/16 04:21:41;;;;;;;;;;;15.70;46.00;;;;;;5093465;28;19948;-65
2022/01/16 04:24:06;;;;;;;;;;;15.70;46.10;;;;;;5092892;28;19908;-65
2022/01/16 04:26:32;;;;;;;;;;;15.60;46.10;;;;;;5094321;28;19912;-65
2022/01/16 04:28:57;;;;;;;;;;;15.60;46.20;;;;;;5094288;28;19909;-65
2022/01/16 04:31:22;;;;;;;;;;;15.60;46.20;;;;;;5094462;28;19909;-65
2022/01/16 04:33:48;;;;;;;;;;;15.60;46.10;;;;;;5094322;28;20006;-65
2022/01/16 04:36:13;;;;;;;;;;;15.60;46.10;;;;;;5093091;28;19912;-65
2022/01/16 04:38:44;;;;;;;;;;;15.70;46.10;;;;;;5092753;28;19916;-64
2022/01/16 04:43:54;;;;;;;;;;;15.70;45.90;;;;;;5093135;28;19919;-64
2022/01/16 04:46:20;;;;;;;;;;;15.70;45.80;;;;;;5094104;28;19912;-65
2022/01/16 04:48:46;;;;;;;;;;;15.70;45.80;;;;;;5094318;28;19908;-65
2022/01/16 04:51:11;;;;;;;;;;;15.70;45.80;;;;;;5094107;28;19931;-65
2022/01/16 04:53:37;;;;;;;;;;;15.70;45.80;;;;;;5092401;28;20380;-64
2022/01/16 04:56:03;;;;;;;;;;;15.80;45.80;;;;;;5092923;28;20364;-65
2022/01/16 04:58:28;;;;;;;;;;;15.80;45.80;;;;;;5092566;28;19908;-65
2022/01/16 05:00:54;;;;;;;;;;;15.80;45.80;;;;;;5094523;28;20380;-64
2022/01/16 05:03:20;;;;;;;;;;;15.80;45.80;;;;;;5093850;28;19916;-65
2022/01/16 05:05:45;;;;;;;;;;;15.80;45.70;;;;;;5092693;28;20010;-65
2022/01/16 05:08:11;;;;;;;;;;;15.80;45.70;;;;;;5093701;28;20025;-65
2022/01/16 05:10:36;;;;;;;;;;;15.80;45.70;;;;;;5093333;28;20298;-65
2022/01/16 05:13:27;;;;;;;;;;;15.80;45.70;;;;;;5093670;28;20311;-65
2022/01/16 05:18:31;;;;;;;;;;;15.80;45.70;;;;;;5092086;28;19927;-64
2022/01/16 05:20:57;;;;;;;;;;;15.80;45.70;;;;;;5092361;28;19908;-64
2022/01/16 05:23:22;;;;;;;;;;;15.80;45.60;;;;;;5092270;28;19997;-64
2022/01/16 05:25:47;;;;;;;;;;;15.80;45.70;;;;;;5093008;28;19969;-64
2022/01/16 05:28:13;;;;;;;;;;;15.80;45.70;;;;;;5092123;28;19912;-64
2022/01/16 05:30:38;;;;;;;;;;;15.80;45.70;;;;;;5092050;28;19912;-65
2022/01/16 05:33:04;;;;;;;;;;;15.70;45.60;;;;;;5093636;28;19919;-65
2022/01/16 05:35:29;;;;;;;;;;;15.70;45.70;;;;;;5091983;28;19965;-64
2022/01/16 05:37:55;;;;;;;;;;;15.70;45.70;;;;;;5093228;28;19916;-63
2022/01/16 05:40:20;;;;;;;;;;;15.70;45.70;;;;;;5092742;28;20010;-64
2022/01/16 05:42:45;;;;;;;;;;;15.70;45.70;;;;;;5093281;28;19908;-64
2022/01/16 05:45:11;;;;;;;;;;;15.70;45.60;;;;;;5091648;28;19999;-64
2022/01/16 05:47:36;;;;;;;;;;;15.70;45.60;;;;;;5091758;28;19919;-64
2022/01/16 05:50:02;;;;;;;;;;;15.70;46.30;;;;;;5108631;28;19912;-64
2022/01/16 05:52:28;;;;;;;;;;;15.70;45.60;;;;;;5093056;28;19908;-65
2022/01/16 05:54:53;;;;;;;;;;;15.70;45.70;;;;;;5091157;28;19908;-65
2022/01/16 05:57:19;;;;;;;;;;;15.70;45.60;;;;;;5091584;28;19916;-65
2022/01/16 05:59:44;;;;;;;;;;;15.70;45.50;;;;;;5091713;28;19912;-65
2022/01/16 06:02:10;;;;;;;;;;;15.70;45.50;;;;;;5092919;28;19912;-65
2022/01/16 06:04:35;;;;;;;;;;;15.70;45.50;;;;;;5091461;28;19908;-64
2022/01/16 06:07:00;;;;;;;;;;;15.70;45.50;;;;;;5125425;27;19919;-65
2022/01/16 06:09:26;;;;;;;;;;;15.70;45.60;;;;;;5091031;28;20078;-64
2022/01/16 06:11:52;;;;;;;;;;;15.70;45.60;;;;;;5091438;28;19908;-64
2022/01/16 06:14:18;;;;;;;;;;;15.70;45.60;;;;;;5092649;28;19915;-64
2022/01/16 06:16:43;;;;;;;;;;;15.70;45.60;;;;;;5091359;28;19916;-64
2022/01/16 06:19:09;;;;;;;;;;;15.70;45.70;;;;;;5091149;28;19919;-64
2022/01/16 06:21:34;;;;;;;;;;;15.70;45.70;;;;;;5092664;28;19916;-64
2022/01/16 06:24:00;;;;;;;;;;;15.70;45.70;;;;;;5092010;28;20007;-65
2022/01/16 06:26:25;;;;;;;;;;;15.60;45.60;;;;;;5092067;28;19916;-65
2022/01/16 06:28:51;;;;;;;;;;;15.70;45.70;;;;;;5091095;28;20003;-65
2022/01/16 06:31:16;;;;;;;;;;;15.70;45.70;;;;;;5091308;28;19927;-65
2022/01/16 06:33:41;;;;;;;;;;;15.70;45.70;;;;;;5091046;28;19908;-65
2022/01/16 06:36:07;;;;;;;;;;;15.70;45.60;;;;;;5125153;28;19912;-65
2022/01/16 06:38:32;;;;;;;;;;;15.70;45.50;;;;;;5091831;28;19908;-65
2022/01/16 06:40:58;;;;;;;;;;;15.70;45.50;;;;;;5092351;28;20391;-65
2022/01/16 06:43:23;;;;;;;;;;;15.70;45.50;;;;;;5091185;28;19949;-64
2022/01/16 06:45:49;;;;;;;;;;;15.70;45.50;;;;;;5092382;28;19958;-64
2022/01/16 06:48:14;;;;;;;;;;;15.70;45.50;;;;;;5092292;28;19916;-65
2022/01/16 06:50:40;;;;;;;;;;;15.70;45.50;;;;;;5092201;28;20322;-65
2022/01/16 06:53:05;;;;;;;;;;;15.70;45.50;;;;;;5092347;28;19908;-65
2022/01/16 06:55:30;;;;;;;;;;;15.70;45.50;;;;;;5091730;28;19908;-65
2022/01/16 06:57:56;;;;;;;;;;;15.70;45.50;;;;;;5107684;28;19915;-64
2022/01/16 07:00:21;;;;;;;;;;;15.70;45.50;;;;;;5074122;28;19908;-65
2022/01/16 07:02:47;;;;;;;;;;;15.70;45.50;;;;;;5073923;28;20373;-64
2022/01/16 07:05:12;;;;;;;;;;;15.70;45.50;;;;;;5092170;28;20003;-64
2022/01/16 07:07:38;;;;;;;;;;;15.70;45.50;;;;;;5090751;28;19983;-64
2022/01/16 07:10:03;;;;;;;;;;;15.70;45.50;;;;;;5090433;28;19957;-64
2022/01/16 07:12:29;;;;;;;;;;;15.60;45.50;;;;;;5091090;28;20372;-64
2022/01/16 07:14:54;;;;;;;;;;;15.70;45.50;;;;;;5092012;28;20368;-64
2022/01/16 07:17:20;;;;;;;;;;;15.70;45.50;;;;;;5090599;28;20265;-64
2022/01/16 07:19:45;;;;;;;;;;;15.70;45.60;;;;;;5092116;28;19915;-65
2022/01/16 07:22:11;;;;;;;;;;;15.70;45.60;;;;;;5091969;28;19953;-65
2022/01/16 07:24:36;;;;;;;;;;;15.70;45.50;;;;;;5090162;28;19909;-65
2022/01/16 07:27:02;;;;;;;;;;;15.70;45.50;;;;;;5091801;28;19963;-65
2022/01/16 07:29:27;;;;;;;;;;;15.70;45.50;;;;;;5107407;28;19908;-65
2022/01/16 07:31:53;;;;;;;;;;;15.70;45.50;;;;;;5091888;28;19908;-65
2022/01/16 07:34:18;;;;;;;;;;;15.60;45.40;;;;;;5091789;28;20339;-65
2022/01/16 07:36:44;;;;;;;;;;;15.60;45.50;;;;;;5090607;28;19916;-65
2022/01/16 07:39:09;;;;;;;;;;;15.60;45.50;;;;;;5092196;28;19959;-65
2022/01/16 07:41:35;;;;;;;;;;;15.70;45.60;;;;;;5094260;28;19908;-65
2022/01/16 07:44:01;;;;;;;;;;;15.60;45.50;;;;;;5095366;28;19933;-64
2022/01/16 07:46:27;;;;;;;;;;;15.60;45.50;;;;;;5094086;28;19995;-64
2022/01/16 07:48:53;;;;;;;;;;;15.60;45.50;;;;;;5094091;28;19908;-64
2022/01/16 07:51:18;;;;;;;;;;;15.60;45.40;;;;;;5094272;28;19908;-64
2022/01/16 07:53:44;;;;;;;;;;;15.70;45.50;;;;;;5094829;28;19968;-64
2022/01/16 07:56:09;;;;;;;;;;;15.70;45.50;;;;;;5095248;28;19923;-64
2022/01/16 07:58:36;;;;;;;;;;;15.60;45.40;;;;;;5089114;28;19913;-64
2022/01/16 08:01:02;;;;;;;;;;;15.60;45.40;;;;;;5074562;28;19915;-65
2022/01/16 08:03:27;;;;;;;;;;;15.70;45.50;;;;;;5073370;28;20289;-65
2022/01/16 08:05:53;;;;;;;;;;;15.70;45.50;;;;;;5074766;28;20368;-65
2022/01/16 08:08:18;;;;;;;;;;;15.70;45.40;;;;;;5074639;28;19913;-65
2022/01/16 08:10:44;;;;;;;;;;;15.60;45.40;;;;;;5072920;28;19927;-65
2022/01/16 08:13:09;;;;;;;;;;;15.60;45.40;;;;;;5074692;28;19919;-65
2022/01/16 08:15:35;;;;;;;;;;;15.60;45.40;;;;;;5073200;28;20326;-64
2022/01/16 08:18:00;;;;;;;;;;;15.60;45.40;;;;;;5073167;28;19932;-64
2022/01/16 08:20:25;;;;;;;;;;;15.60;45.40;;;;;;5074537;28;20284;-64
2022/01/16 08:22:51;;;;;;;;;;;15.60;45.50;;;;;;5074560;28;20276;-64
2022/01/16 08:25:16;;;;;;;;;;;15.60;45.50;;;;;;5074101;28;19909;-65
2022/01/16 08:27:42;;;;;;;;;;;15.60;45.40;;;;;;5085056;28;20334;-66
2022/01/16 08:30:08;;;;;;;;;;;15.60;45.40;;;;;;5094412;28;19912;-65
2022/01/16 08:32:33;;;;;;;;;;;15.60;45.30;;;;;;5094513;28;20052;-65
2022/01/16 08:34:59;;;;;;;;;;;15.60;45.30;;;;;;5094320;28;19919;-65
2022/01/16 08:37:25;;;;;;;;;;;15.60;45.40;;;;;;5076566;28;20024;-65
2022/01/16 08:39:50;;;;;;;;;;;15.60;45.40;;;;;;5093947;28;20419;-65
2022/01/16 08:42:16;;;;;;;;;;;15.60;45.30;;;;;;5094411;28;19908;-65
2022/01/16 08:44:42;;;;;;;;;;;15.60;45.40;;;;;;5094223;28;20376;-64
2022/01/16 08:47:08;;;;;;;;;;;15.60;45.40;;;;;;5094192;28;19916;-64
2022/01/16 08:49:33;;;;;;;;;;;15.60;45.40;;;;;;5092421;28;19958;-64
2022/01/16 08:51:59;;;;;;;;;;;15.60;45.40;;;;;;5094427;28;20368;-64
2022/01/16 08:54:24;;;;;;;;;;;15.60;45.40;;;;;;5092362;28;19912;-65
2022/01/16 08:56:50;;;;;;;;;;;15.60;45.30;;;;;;5094008;28;19912;-64
2022/01/16 08:59:15;;;;;;;;;;;15.60;45.30;;;;;;5093842;28;19908;-64
2022/01/16 09:01:41;;;;;;;;;;;15.60;45.40;;;;;;5093911;28;20341;-64
2022/01/16 09:04:06;;;;;;;;;;;15.60;45.40;;;;;;5092442;28;20295;-64
2022/01/16 09:06:32;;;;;;;;;;;15.60;45.40;;;;;;5126688;27;19912;-64
2022/01/16 09:08:58;;;;;;;;;;;15.60;45.40;;;;;;5093217;28;20391;-64
2022/01/16 09:11:25;;;;;;;;;;;15.60;45.40;;;;;;5092461;28;19908;-64
2022/01/16 09:13:53;;;;;;;;;;;15.60;45.40;;;;;;5093562;28;19965;-64
2022/01/16 09:16:20;;;;;;;;;;;15.60;45.40;;;;;;5093773;28;19908;-64
2022/01/16 09:18:47;;;;;;;;;;;15.60;45.40;;;;;;5093340;28;19920;-64
2022/01/16 09:21:13;;;;;;;;;;;15.60;45.40;;;;;;5092386;28;19908;-64
2022/01/16 09:23:38;;;;;;;;;;;15.60;45.40;;;;;;5091886;28;19958;-65
2022/01/16 09:26:04;;;;;;;;;;;15.60;45.40;;;;;;5126158;27;20010;-65
2022/01/16 09:28:29;;;;;;;;;;;15.60;45.40;;;;;;5092113;28;19919;-65
2022/01/16 09:30:55;;;;;;;;;;;15.60;45.40;;;;;;5092164;28;19908;-65
2022/01/16 09:33:20;;;;;;;;;;;15.60;45.40;;;;;;5093518;28;19912;-63
2022/01/16 09:35:46;;;;;;;;;;;15.60;45.40;;;;;;5093163;28;19908;-64
2022/01/16 09:38:11;;;;;;;;;;;15.60;45.30;;;;;;5093288;28;19947;-64
2022/01/16 09:40:37;;;;;;;;;;;15.60;45.30;;;;;;5092786;28;19908;-61
2022/01/16 09:43:03;;;;;;;;;;;15.60;45.30;;;;;;5091991;28;20417;-64
2022/01/16 09:45:29;;;;;;;;;;;15.60;45.30;;;;;;5093142;28;20321;-64
2022/01/16 09:47:54;;;;;;;;;;;15.60;45.30;;;;;;5092960;28;19916;-64
2022/01/16 09:50:21;;;;;;;;;;;15.60;45.30;;;;;;5108667;28;20392;-64
2022/01/16 09:52:47;;;;;;;;;;;15.60;45.30;;;;;;5091934;28;19973;-64
2022/01/16 09:55:12;;;;;;;;;;;15.50;45.30;;;;;;5091262;28;19908;-64
2022/01/16 09:57:38;;;;;;;;;;;15.50;45.40;;;;;;5092951;28;19908;-64
2022/01/16 10:00:04;;;;;;;;;;;15.60;45.40;;;;;;5092789;28;19908;-64
2022/01/16 10:02:29;;;;;;;;;;;15.60;45.40;;;;;;5090954;28;19912;-63
2022/01/16 10:04:55;;;;;;;;;;;15.60;45.40;;;;;;5092529;28;20011;-64
2022/01/16 10:07:20;;;;;;;;;;;15.60;45.40;;;;;;5092757;28;19924;-64
2022/01/16 10:10:06;;;;;;;;;;;15.60;45.40;;;;;;5124995;27;20426;-64
2022/01/16 10:12:33;;;;;;;;;;;15.60;45.30;;;;;;5091529;28;19908;-64
2022/01/16 10:14:59;;;;;;;;;;;15.60;45.30;;;;;;5092955;28;20474;-64
2022/01/16 10:17:24;;;;;;;;;;;15.60;45.30;;;;;;5090965;28;19951;-64
2022/01/16 10:20:04;;;;;;;;;;;15.60;45.40;;;;;;5092503;28;19919;-64
2022/01/16 10:22:36;;;;;;;;;;;15.50;45.40;;;;;;5092530;28;19912;-64
2022/01/16 10:25:04;;;;;;;;;;;15.50;45.40;;;;;;5090839;28;20385;-64
2022/01/16 10:27:29;;;;;;;;;;;15.50;45.40;;;;;;5092827;28;19928;-64
2022/01/16 10:29:57;;;;;;;;;;;15.50;45.40;;;;;;5091072;28;20368;-65
2022/01/16 10:32:23;;;;;;;;;;;15.50;45.40;;;;;;5091390;28;20002;-65
2022/01/16 10:34:52;;;;;;;;;;;15.50;45.40;;;;;;5091225;28;19958;-64
2022/01/16 10:37:18;;;;;;;;;;;15.50;45.40;;;;;;5092558;28;20299;-64
2022/01/16 10:39:53;;;;;;;;;;;15.50;45.40;;;;;;5091859;28;20272;-64
2022/01/16 10:42:19;;;;;;;;;;;15.50;45.40;;;;;;5092432;28;19931;-64
2022/01/16 10:44:44;;;;;;;;;;;15.50;45.40;;;;;;5092261;28;20364;-64
2022/01/16 10:47:23;;;;;;;;;;;15.60;45.40;;;;;;5108358;28;19920;-64
2022/01/16 10:49:58;;;;;;;;;;;15.50;45.40;;;;;;5091105;28;20384;-64
2022/01/16 10:52:24;;;;;;;;;;;15.50;45.30;;;;;;5090962;28;20735;-64
2022/01/16 10:54:49;;;;;;;;;;;15.50;45.40;;;;;;5090595;28;19963;-64
2022/01/16 10:57:25;;;;;;;;;;;15.60;45.40;;;;;;5107845;28;19953;-64
2022/01/16 11:00:03;;;;;;;;;;;15.50;45.30;;;;;;5092054;28;19908;-64
2022/01/16 11:02:29;;;;;;;;;;;15.50;45.40;;;;;;5092179;28;20301;-64
2022/01/16 11:05:03;;;;;;;;;;;15.50;45.40;;;;;;5092248;28;19912;-64
2022/01/16 11:07:28;;;;;;;;;;;15.50;45.40;;;;;;5070786;28;19912;-64
2022/01/16 11:09:54;;;;;;;;;;;15.50;45.40;;;;;;5071454;28;19916;-64
2022/01/16 11:12:19;;;;;;;;;;;15.50;45.30;;;;;;5072765;28;19920;-64
2022/01/16 11:14:44;;;;;;;;;;;15.50;46.00;;;;;;5074273;28;19909;-64
2022/01/16 11:17:10;;;;;;;;;;;15.50;45.40;;;;;;5074221;28;19917;-64
2022/01/16 11:19:35;;;;;;;;;;;15.50;45.40;;;;;;5057428;28;20002;-64
2022/01/16 11:22:04;;;;;;;;;;;15.50;45.50;;;;;;5074377;28;19912;-64
2022/01/16 11:24:46;;;;;;;;;;;15.50;45.50;;;;;;5073931;28;19913;-64
2022/01/16 11:27:11;;;;;;;;;;;15.50;45.50;;;;;;5088764;28;20006;-64
2022/01/16 11:29:36;;;;;;;;;;;15.50;45.50;;;;;;5111189;28;20011;-64
2022/01/16 11:32:02;;;;;;;;;;;15.50;45.50;;;;;;5094365;28;19915;-63
2022/01/16 11:34:29;;;;;;;;;;;15.50;45.50;;;;;;5095596;28;19954;-63
2022/01/16 11:36:54;;;;;;;;;;;15.50;45.50;;;;;;5095543;28;19952;-63
2022/01/16 11:39:20;;;;;;;;;;;15.50;45.40;;;;;;5127828;27;19954;-63
2022/01/16 11:41:50;;;;;;;;;;;15.50;45.40;;;;;;5094255;28;20418;-63
2022/01/16 11:44:27;;;;;;;;;;;15.50;45.50;;;;;;5094182;28;19916;-63
2022/01/16 11:46:55;;;;;;;;;;;15.50;45.50;;;;;;5094126;28;19999;-63
2022/01/16 11:49:33;;;;;;;;;;;15.50;45.60;;;;;;5094043;28;20291;-63
2022/01/16 11:52:05;;;;;;;;;;;15.50;45.60;;;;;;5094064;28;19961;-63
2022/01/16 11:54:32;;;;;;;;;;;15.50;45.60;;;;;;5093574;28;20340;-64
2022/01/16 11:56:58;;;;;;;;;;;15.50;45.60;;;;;;5093864;28;19908;-64
2022/01/16 11:59:24;;;;;;;;;;;15.40;45.50;;;;;;5095108;28;19908;-64
2022/01/16 12:01:55;;;;;;;;;;;15.40;45.50;;;;;;5095183;28;20407;-64
2022/01/16 12:04:30;;;;;;;;;;;15.40;45.50;;;;;;5094919;28;19919;-64
2022/01/16 12:07:15;;;;;;;;;;;15.50;45.60;;;;;;5094882;28;19919;-64
2022/01/16 12:09:59;;;;;;;;;;;15.50;45.60;;;;;;5093243;28;19944;-64
2022/01/16 12:12:26;;;;;;;;;;;15.50;45.60;;;;;;5094975;28;19919;-64
2022/01/16 12:14:55;;;;;;;;;;;15.50;45.60;;;;;;5094748;28;19999;-64
2022/01/16 12:17:24;;;;;;;;;;;15.50;45.50;;;;;;5094727;28;19915;-64
2022/01/16 12:19:51;;;;;;;;;;;15.50;45.60;;;;;;5094731;28;19916;-64
2022/01/16 12:22:17;;;;;;;;;;;15.50;45.50;;;;;;5093635;28;19930;-64
2022/01/16 12:24:47;;;;;;;;;;;15.50;45.50;;;;;;5092242;28;19908;-64
2022/01/16 12:27:31;;;;;;;;;;;15.50;45.50;;;;;;5093250;28;19916;-64
2022/01/16 12:30:17;;;;;;;;;;;15.50;45.60;;;;;;5094424;28;19916;-63
2022/01/16 12:32:49;;;;;;;;;;;15.50;45.50;;;;;;5073132;28;19918;-63
2022/01/16 12:35:15;;;;;;;;;;;15.40;45.50;;;;;;5094359;28;20295;-63
2022/01/16 12:37:43;;;;;;;;;;;15.50;45.60;;;;;;5093190;28;19999;-63
2022/01/16 12:40:08;;;;;;;;;;;15.40;45.50;;;;;;5075715;28;19916;-64
2022/01/16 12:42:34;;;;;;;;;;;15.40;45.50;;;;;;5093124;28;19973;-64
2022/01/16 12:44:59;;;;;;;;;;;15.50;45.60;;;;;;5092743;28;19957;-64
2022/01/16 12:47:25;;;;;;;;;;;15.50;45.60;;;;;;5094232;28;20012;-64
2022/01/16 12:49:52;;;;;;;;;;;15.50;45.60;;;;;;5092894;28;19912;-64
2022/01/16 12:52:18;;;;;;;;;;;15.50;45.50;;;;;;5092937;28;19915;-64
2022/01/16 12:54:48;;;;;;;;;;;15.50;45.50;;;;;;5093672;28;19908;-64
2022/01/16 12:57:13;;;;;;;;;;;15.50;45.60;;;;;;5092811;28;19970;-64
2022/01/16 12:59:41;;;;;;;;;;;15.50;45.60;;;;;;5092507;28;20287;-64
2022/01/16 13:02:07;;;;;;;;;;;15.50;45.60;;;;;;5094030;28;19961;-64
2022/01/16 13:04:36;;;;;;;;;;;15.50;45.60;;;;;;5093776;28;20417;-64
2022/01/16 13:07:09;;;;;;;;;;;15.50;45.60;;;;;;5092502;28;19912;-64
2022/01/16 13:09:34;;;;;;;;;;;15.40;45.50;;;;;;5092515;28;19963;-64
2022/01/16 13:12:00;;;;;;;;;;;15.40;45.50;;;;;;5093782;28;20421;-64
2022/01/16 13:14:30;;;;;;;;;;;15.40;45.60;;;;;;5093911;28;19908;-64
2022/01/16 13:16:59;;;;;;;;;;;15.40;45.60;;;;;;5092228;28;20372;-64
2022/01/16 13:19:26;;;;;;;;;;;15.40;45.50;;;;;;5093653;28;20006;-64
2022/01/16 13:22:13;;;;;;;;;;;15.50;45.60;;;;;;5093629;28;19912;-63
2022/01/16 13:24:47;;;;;;;;;;;15.40;45.50;;;;;;5093150;28;19966;-63
2022/01/16 13:27:16;;;;;;;;;;;15.40;45.50;;;;;;5092133;28;20337;-63
2022/01/16 13:29:46;;;;;;;;;;;15.40;45.70;;;;;;5093351;28;19908;-63
2022/01/16 13:32:13;;;;;;;;;;;15.40;45.60;;;;;;5092292;28;19916;-63
2022/01/16 13:34:43;;;;;;;;;;;15.40;45.60;;;;;;5092027;28;19957;-63
2022/01/16 13:37:11;;;;;;;;;;;15.50;45.70;;;;;;5092204;28;20337;-63
2022/01/16 13:39:46;;;;;;;;;;;15.50;45.60;;;;;;5092785;28;19916;-64
2022/01/16 13:42:29;;;;;;;;;;;15.50;45.70;;;;;;5093220;28;19912;-64
2022/01/16 13:45:12;;;;;;;;;;;15.40;45.60;;;;;;5099918;28;19919;-64
2022/01/16 13:47:38;;;;;;;;;;;15.40;45.70;;;;;;5125875;27;20434;-64
2022/01/16 13:50:10;;;;;;;;;;;15.40;45.70;;;;;;5092966;28;19912;-64
2022/01/16 13:52:35;;;;;;;;;;;15.40;45.70;;;;;;5098653;28;19914;-64
2022/01/16 13:55:08;;;;;;;;;;;15.40;45.90;;;;;;5091178;28;20002;-64
2022/01/16 13:57:34;;;;;;;;;;;15.30;46.00;;;;;;5091600;28;19908;-64
2022/01/16 13:59:59;;;;;;;;;;;15.30;46.00;;;;;;5091644;28;19919;-64
2022/01/16 14:02:25;;;;;;;;;;;15.30;46.10;;;;;;5092925;28;19947;-64
2022/01/16 14:04:51;;;;;;;;;;;15.30;46.10;;;;;;5092707;28;19912;-63
2022/01/16 14:07:20;;;;;;;;;;;15.30;46.00;;;;;;5092739;28;19982;-63
2022/01/16 14:09:46;;;;;;;;;;;15.30;46.00;;;;;;5125195;27;20309;-63
2022/01/16 14:12:11;;;;;;;;;;;15.30;46.10;;;;;;5092829;28;19916;-63
2022/01/16 14:14:37;;;;;;;;;;;15.30;46.20;;;;;;5108202;28;20291;-63
2022/01/16 14:17:27;;;;;;;;;;;15.30;46.80;;;;;;5091283;28;19934;-63
2022/01/16 14:22:17;;;;;;;;;;;15.30;46.20;;;;;;5091843;28;19955;-63
2022/01/16 14:24:51;;;;;;;;;;;15.30;46.20;;;;;;5090778;28;19908;-63
2022/01/16 14:27:23;;;;;;;;;;;15.30;46.20;;;;;;5091148;28;19923;-63
2022/01/16 14:29:49;;;;;;;;;;;15.30;46.20;;;;;;5092702;28;20293;-63
2022/01/16 14:32:15;;;;;;;;;;;15.30;46.20;;;;;;5092577;28;19951;-63
2022/01/16 14:34:41;;;;;;;;;;;15.30;46.20;;;;;;5091099;28;20348;-63
2022/01/16 14:37:09;;;;;;;;;;;15.30;46.30;;;;;;5091199;28;19961;-63
2022/01/16 14:39:35;;;;;;;;;;;15.30;46.30;;;;;;5090830;28;19912;-63
2022/01/16 14:42:00;;;;;;;;;;;15.30;46.40;;;;;;5091079;28;19919;-64
2022/01/16 14:44:29;;;;;;;;;;;15.30;46.30;;;;;;5090951;28;19908;-64
2022/01/16 14:46:55;;;;;;;;;;;15.30;46.40;;;;;;5091298;28;19957;-64
2022/01/16 14:49:21;;;;;;;;;;;15.30;46.40;;;;;;5095512;28;19956;-64
2022/01/16 14:51:46;;;;;;;;;;;15.30;46.40;;;;;;5095275;28;20322;-64
2022/01/16 14:54:11;;;;;;;;;;;15.30;46.40;;;;;;5094739;28;19915;-64
2022/01/16 14:56:37;;;;;;;;;;;15.30;46.40;;;;;;5096340;28;19908;-64
2022/01/16 14:59:03;;;;;;;;;;;15.30;46.40;;;;;;5095070;28;20030;-63